createdAt,value
2022-08-26T00:01:58.272Z,18.23
2022-08-26T00:07:05.271Z,15.18
2022-08-26T00:12:12.257Z,19.97
2022-08-26T00:17:18.853Z,18.80
2022-08-26T00:22:23.519Z,15.40
2022-08-26T00:27:28.530Z,20.83
2022-08-26T00:32:34.064Z,14.68
2022-08-26T00:37:38.640Z,15.65
2022-08-26T00:42:46.127Z,19.25
2022-08-26T00:47:59.453Z,20.00
2022-08-26T00:53:05.375Z,16.02
2022-08-26T01:03:14.715Z,16.42
2022-08-26T01:08:18.800Z,13.27
2022-08-26T01:13:23.250Z,26.35
2022-08-26T01:18:29.546Z,13.27
2022-08-26T01:23:37.166Z,19.33
2022-08-26T01:28:42.687Z,16.35
2022-08-26T01:33:52.306Z,17.98
2022-08-26T01:38:57.771Z,16.73
2022-08-26T01:44:02.509Z,20.67
2022-08-26T01:49:08.545Z,14.32
2022-08-26T01:54:14.353Z,12.18
2022-08-26T01:59:19.020Z,15.90
2022-08-26T02:04:26.192Z,10.90
2022-08-26T02:09:32.208Z,12.82
2022-08-26T02:14:44.506Z,12.70
2022-08-26T02:19:50.816Z,9.85
2022-08-26T02:24:58.924Z,15.80
2022-08-26T02:30:10.177Z,18.75
2022-08-26T02:35:20.080Z,12.45
2022-08-26T02:40:30.485Z,10.68
2022-08-26T02:45:35.138Z,13.00
2022-08-26T02:50:39.492Z,18.02
2022-08-26T02:55:44.968Z,12.82
2022-08-26T03:00:53.693Z,11.30
2022-08-26T03:05:59.048Z,16.00
2022-08-26T03:11:04.476Z,15.82
2022-08-26T03:21:14.876Z,11.93
2022-08-26T03:26:20.329Z,17.85
2022-08-26T03:31:24.967Z,11.57
2022-08-26T03:36:29.373Z,15.70
2022-08-26T03:41:35.025Z,13.70
2022-08-26T03:46:39.810Z,11.35
2022-08-26T03:51:44.074Z,11.13
2022-08-26T03:56:50.261Z,11.02
2022-08-26T04:01:54.377Z,16.23
2022-08-26T04:06:59.999Z,11.27
2022-08-26T04:12:05.976Z,18.65
2022-08-26T04:17:10.045Z,19.70
2022-08-26T04:22:14.208Z,18.40
2022-08-26T04:27:19.656Z,15.77
2022-08-26T04:32:23.795Z,13.15
2022-08-26T04:37:27.906Z,11.27
2022-08-26T04:42:33.776Z,14.75
2022-08-26T04:47:38.252Z,17.13
2022-08-26T04:52:43.219Z,19.63
2022-08-26T04:57:48.651Z,12.82
2022-08-26T05:02:53.251Z,13.63
2022-08-26T05:07:57.371Z,13.63
2022-08-26T05:13:03.922Z,20.23
2022-08-26T05:18:16.506Z,19.08
2022-08-26T05:28:28.528Z,14.07
2022-08-26T05:33:32.514Z,23.95
2022-08-26T05:38:36.654Z,14.32
2022-08-26T05:43:42.087Z,10.93
2022-08-26T05:48:47.172Z,19.88
2022-08-26T05:53:54.850Z,12.70
2022-08-26T05:59:01.593Z,15.43
2022-08-26T06:04:05.692Z,14.70
2022-08-26T06:09:10.888Z,15.05
2022-08-26T06:14:17.674Z,21.40
2022-08-26T06:19:22.630Z,15.15
2022-08-26T06:24:44.085Z,11.45
2022-08-26T06:29:49.473Z,12.10
2022-08-26T06:34:53.803Z,14.20
2022-08-26T06:39:57.967Z,13.57
2022-08-26T06:45:03.547Z,19.30
2022-08-26T06:50:09.637Z,13.27
2022-08-26T06:55:13.811Z,16.30
2022-08-26T07:00:20.891Z,13.10
2022-08-26T07:05:25.775Z,19.73
2022-08-26T07:10:29.913Z,13.73
2022-08-26T07:15:36.207Z,21.30
2022-08-26T07:20:42.247Z,14.43
2022-08-26T07:25:46.361Z,12.15
2022-08-26T07:30:52.007Z,17.80
2022-08-26T07:35:57.123Z,14.55
2022-08-26T07:41:01.950Z,18.88
2022-08-26T07:46:08.255Z,15.25
2022-08-26T07:51:16.520Z,21.33
2022-08-26T07:56:20.503Z,11.30
2022-08-26T08:01:27.351Z,12.98
2022-08-26T08:06:32.568Z,15.85
2022-08-26T08:11:36.873Z,14.77
2022-08-26T08:16:46.884Z,10.80
2022-08-26T08:21:51.184Z,16.63
2022-08-26T08:26:55.559Z,15.68
2022-08-26T08:32:01.642Z,29.25
2022-08-26T08:37:10.069Z,14.82
2022-08-26T08:42:35.758Z,16.75
2022-08-26T08:47:44.084Z,16.37
2022-08-26T08:52:52.438Z,17.55
2022-08-26T08:58:02.466Z,16.15
2022-08-26T09:03:13.411Z,12.93
2022-08-26T09:08:20.063Z,14.85
2022-08-26T09:13:27.103Z,13.48
2022-08-26T09:18:52.391Z,17.75
2022-08-26T09:23:57.399Z,21.33
2022-08-26T09:29:03.338Z,16.13
2022-08-26T09:34:17.400Z,16.13
2022-08-26T09:39:33.213Z,17.55
2022-08-26T09:44:53.941Z,18.77
2022-08-26T09:50:04.241Z,13.88
2022-08-26T09:55:15.590Z,14.02
2022-08-26T10:00:34.247Z,11.82
2022-08-26T10:05:45.185Z,9.57
2022-08-26T10:10:49.159Z,15.98
2022-08-26T10:16:03.136Z,13.05
2022-08-26T10:21:14.174Z,16.10
2022-08-26T10:26:27.469Z,16.50
2022-08-26T10:31:40.190Z,13.32
2022-08-26T10:37:14.430Z,24.08
2022-08-26T10:42:24.820Z,29.83
2022-08-26T10:47:35.333Z,28.60
2022-08-26T10:52:50.894Z,24.58
2022-08-26T10:57:58.632Z,18.10
2022-08-26T11:03:09.469Z,20.67
2022-08-26T11:08:30.856Z,18.75
2022-08-26T11:14:01.093Z,22.88
2022-08-26T11:19:05.564Z,23.13
2022-08-26T11:24:11.108Z,26.20
2022-08-26T11:29:53.393Z,24.73
2022-08-26T11:34:59.340Z,25.08
2022-08-26T11:40:10.429Z,22.23
2022-08-26T11:45:20.885Z,14.80
2022-08-26T11:50:27.869Z,29.25
2022-08-26T11:55:34.878Z,22.42
2022-08-26T12:00:51.566Z,27.10
2022-08-26T12:05:57.391Z,25.13
2022-08-26T12:11:09.703Z,28.30
2022-08-26T12:16:13.732Z,18.53
2022-08-26T12:21:24.579Z,29.50
2022-08-26T12:26:31.896Z,26.95
2022-08-26T12:31:37.442Z,22.65
2022-08-26T12:36:46.714Z,20.25
2022-08-26T12:41:54.296Z,19.55
2022-08-26T12:47:03.861Z,22.83
2022-08-26T12:52:09.793Z,17.77
2022-08-26T12:57:15.182Z,18.38
2022-08-26T13:02:36.630Z,18.95
2022-08-26T13:07:41.059Z,20.52
2022-08-26T13:12:46.868Z,21.25
2022-08-26T13:17:50.689Z,28.23
2022-08-26T13:22:58.771Z,17.13
2022-08-26T13:28:14.210Z,32.88
2022-08-26T13:33:18.738Z,23.27
2022-08-26T13:38:33.734Z,27.27
2022-08-26T13:43:39.349Z,25.58
2022-08-26T13:48:43.406Z,32.10
2022-08-26T13:53:48.702Z,30.17
2022-08-26T13:58:54.076Z,25.38
2022-08-26T14:03:58.165Z,27.40
2022-08-26T14:09:02.057Z,26.13
2022-08-26T14:14:07.572Z,34.50
2022-08-26T14:19:11.999Z,30.92
2022-08-26T14:24:15.863Z,28.33
2022-08-26T14:29:21.238Z,21.70
2022-08-26T14:34:26.149Z,28.65
2022-08-26T14:39:30.054Z,22.58
2022-08-26T14:44:35.687Z,32.15
2022-08-26T14:49:39.497Z,24.48
2022-08-26T14:54:43.391Z,32.28
2022-08-26T14:59:50.523Z,23.92
2022-08-26T15:04:54.475Z,23.98
2022-08-26T15:09:58.983Z,29.50
2022-08-26T15:15:04.359Z,27.83
2022-08-26T15:20:10.267Z,23.65
2022-08-26T15:25:14.544Z,24.02
2022-08-26T15:30:19.770Z,21.43
2022-08-26T15:40:27.619Z,34.63
2022-08-26T15:45:33.835Z,31.85
2022-08-26T15:50:37.692Z,21.08
2022-08-26T15:55:41.511Z,27.88
2022-08-26T16:00:46.998Z,25.58
2022-08-26T16:05:51.105Z,27.63
2022-08-26T16:10:55.043Z,26.27
2022-08-26T16:16:02.360Z,23.23
2022-08-26T16:21:13.353Z,29.02
2022-08-26T16:26:20.760Z,24.17
2022-08-26T16:31:26.347Z,27.95
2022-08-26T16:36:30.421Z,30.70
2022-08-26T16:41:35.591Z,21.30
2022-08-26T16:46:41.254Z,21.88
2022-08-26T16:51:45.427Z,35.40
2022-08-26T16:56:49.386Z,31.73
2022-08-26T17:01:55.060Z,21.23
2022-08-26T17:06:59.118Z,27.70
2022-08-26T17:12:03.158Z,27.42
2022-08-26T17:17:08.904Z,26.00
2022-08-26T17:22:13.164Z,38.80
2022-08-26T17:27:17.215Z,35.33
2022-08-26T17:32:22.735Z,28.33
2022-08-26T17:37:26.774Z,39.80
2022-08-26T17:42:31.871Z,24.75
2022-08-26T17:47:37.463Z,33.20
2022-08-26T17:52:42.406Z,32.83
2022-08-26T17:57:53.648Z,42.35
2022-08-26T18:02:59.447Z,34.90
2022-08-26T18:08:03.591Z,33.63
2022-08-26T18:13:07.614Z,33.78
2022-08-26T18:18:13.590Z,44.13
2022-08-26T18:23:17.686Z,41.08
2022-08-26T18:28:21.762Z,45.60
2022-08-26T18:33:27.173Z,30.13
2022-08-26T18:38:31.176Z,43.70
2022-08-26T18:43:35.146Z,42.55
2022-08-26T18:48:41.607Z,52.70
2022-08-26T18:53:45.851Z,38.97
2022-08-26T18:58:50.065Z,46.75
2022-08-26T19:03:55.570Z,33.42
2022-08-26T19:08:59.776Z,42.15
2022-08-26T19:14:04.799Z,38.33
2022-08-26T19:19:10.694Z,56.08
2022-08-26T19:24:17.646Z,41.50
2022-08-26T19:29:22.951Z,50.95
2022-08-26T19:34:30.769Z,55.73
2022-08-26T19:39:36.174Z,51.55
2022-08-26T19:44:57.692Z,39.78
2022-08-26T19:50:03.253Z,46.92
2022-08-26T19:55:08.766Z,43.13
2022-08-26T20:00:16.023Z,45.00
2022-08-26T20:05:23.328Z,32.53
2022-08-26T20:10:27.567Z,33.83
2022-08-26T20:15:31.797Z,36.55
2022-08-26T20:20:54.582Z,39.05
2022-08-26T20:25:58.608Z,40.47
2022-08-26T20:31:03.400Z,36.53
2022-08-26T20:36:09.764Z,38.03
2022-08-26T20:41:13.866Z,34.05
2022-08-26T20:46:20.297Z,38.53
2022-08-26T20:51:28.490Z,34.38
2022-08-26T20:56:32.560Z,44.50
2022-08-26T21:01:42.151Z,41.50
2022-08-26T21:06:52.842Z,44.58
2022-08-26T21:11:57.222Z,45.05
2022-08-26T21:17:01.147Z,37.30
2022-08-26T21:22:06.672Z,39.88
2022-08-26T21:27:10.649Z,36.28
2022-08-26T21:32:15.795Z,44.92
2022-08-26T21:37:21.302Z,47.80
2022-08-26T21:42:26.676Z,44.70
2022-08-26T21:47:32.773Z,43.42
2022-08-26T21:52:39.420Z,32.20
2022-08-26T21:57:43.463Z,39.97
2022-08-26T22:02:48.068Z,34.38
2022-08-26T22:07:53.436Z,42.53
2022-08-26T22:12:57.422Z,34.20
2022-08-26T22:18:02.328Z,30.63
2022-08-26T22:23:07.923Z,41.95
2022-08-26T22:28:12.619Z,44.67
2022-08-26T22:33:16.958Z,36.70
2022-08-26T22:38:23.986Z,39.92
2022-08-26T22:43:29.811Z,45.75
2022-08-26T22:48:33.842Z,32.60
2022-08-26T22:53:40.047Z,35.55
2022-08-26T22:58:46.197Z,37.58
2022-08-26T23:03:50.253Z,40.03
2022-08-26T23:08:55.642Z,35.30
2022-08-26T23:14:00.542Z,44.60
2022-08-26T23:19:06.960Z,32.60
2022-08-26T23:24:13.019Z,38.90
2022-08-26T23:34:38.039Z,42.15
2022-08-26T23:39:44.567Z,38.60
2022-08-26T23:44:48.608Z,29.13
2022-08-26T23:49:52.911Z,25.75
2022-08-26T23:54:58.311Z,27.92
